Time;durP1;ratioP1;P1;durP2;ratioP2;P2;SDS_P1;SDS_P2;PMS_P1;PMS_P2;Temp;Humidity;BMP_temperature;BMP_pressure;BME280_temperature;BME280_humidity;BME280_pressure;Samples;Min_cycle;Max_cycle;Signal;HPM_P1;HPM_P2
2021/11/02 00:02:11;;;;;;;12.77;11.57;;;7.40;99.90;;;;;;5000060;28;20211;-81
2021/11/02 00:04:36;;;;;;;11.33;10.33;;;7.50;99.90;;;;;;5000209;28;20547;-81
2021/11/02 00:07:03;;;;;;;11.20;10.20;;;7.60;99.90;;;;;;4999286;28;20222;-80
2021/11/02 00:09:31;;;;;;;11.90;10.80;;;7.60;99.90;;;;;;4999248;28;20734;-81
2021/11/02 00:11:57;;;;;;;11.77;10.67;;;7.70;99.90;;;;;;4999786;28;20176;-81
2021/11/02 00:14:26;;;;;;;11.50;10.50;;;7.60;99.90;;;;;;4997981;28;20240;-80
2021/11/02 00:16:58;;;;;;;11.53;10.53;;;7.70;99.90;;;;;;4999730;28;20176;-81
2021/11/02 00:19:25;;;;;;;11.80;10.70;;;7.70;99.90;;;;;;4997697;28;20184;-81
2021/11/02 00:21:54;;;;;;;10.93;10.03;;;7.70;99.90;;;;;;4997780;28;20274;-80
2021/11/02 00:26:57;;;;;;;11.13;10.13;;;7.70;99.90;;;;;;4998347;28;20606;-81
2021/11/02 00:29:22;;;;;;;11.07;10.17;;;7.60;99.90;;;;;;4996502;28;20206;-82
2021/11/02 00:31:48;;;;;;;10.80;9.90;;;7.70;99.90;;;;;;4998163;28;20266;-81
2021/11/02 00:34:14;;;;;;;9.80;9.00;;;7.70;99.90;;;;;;4998411;28;20236;-80
2021/11/02 00:36:39;;;;;;;11.30;10.30;;;7.70;99.90;;;;;;4997122;28;20184;-81
2021/11/02 00:39:05;;;;;;;11.37;10.47;;;7.60;99.90;;;;;;4998075;28;20255;-80
2021/11/02 00:41:31;;;;;;;10.80;9.90;;;7.70;99.90;;;;;;4998108;28;20281;-81
2021/11/02 00:43:57;;;;;;;11.77;10.67;;;7.70;99.90;;;;;;4997049;28;20597;-79
2021/11/02 00:46:34;;;;;;;11.23;10.23;;;7.70;99.90;;;;;;4997881;28;20209;-81
2021/11/02 00:49:00;;;;;;;10.93;10.03;;;7.70;99.90;;;;;;4996851;28;20270;-81
2021/11/02 00:51:27;;;;;;;10.43;9.43;;;7.70;99.90;;;;;;4995801;28;20608;-83
2021/11/02 00:53:54;;;;;;;10.43;9.53;;;7.70;99.90;;;;;;4996157;28;20229;-80
2021/11/02 00:56:20;;;;;;;10.53;9.63;;;7.60;99.90;;;;;;4997334;28;20535;-80
2021/11/02 00:58:45;;;;;;;12.00;9.63;;;7.70;99.90;;;;;;4997625;28;20182;-81
2021/11/02 01:01:12;;;;;;;10.60;9.70;;;7.50;99.90;;;;;;4999820;28;20254;-81
2021/11/02 01:03:38;;;;;;;11.10;10.20;;;7.50;99.90;;;;;;5001103;28;20175;-81
2021/11/02 01:06:05;;;;;;;10.87;9.87;;;7.40;99.90;;;;;;5001049;28;20199;-82
2021/11/02 01:08:31;;;;;;;11.77;10.57;;;7.40;99.90;;;;;;4998030;28;20650;-81
2021/11/02 01:11:00;;;;;;;11.53;10.53;;;7.30;99.90;;;;;;4999706;28;20205;-81
2021/11/02 01:13:27;;;;;;;11.23;10.13;;;7.30;99.90;;;;;;4999754;28;20653;-82
2021/11/02 01:15:53;;;;;;;11.23;10.23;;;7.40;99.90;;;;;;4999945;28;20183;-80
2021/11/02 01:18:18;;;;;;;11.90;10.80;;;7.30;99.90;;;;;;4998868;28;20558;-81
2021/11/02 01:20:44;;;;;;;11.93;10.93;;;7.40;99.90;;;;;;4999413;28;20207;-81
2021/11/02 01:23:11;;;;;;;12.13;10.63;;;7.40;99.90;;;;;;4995785;28;20206;-80
2021/11/02 01:25:37;;;;;;;11.20;10.27;;;7.50;99.90;;;;;;4996653;28;20199;-80
2021/11/02 01:28:03;;;;;;;12.47;11.23;;;7.50;99.90;;;;;;4997553;28;20547;-80
2021/11/02 01:30:28;;;;;;;11.93;10.60;;;7.50;99.90;;;;;;4995898;28;20216;-79
2021/11/02 01:32:54;;;;;;;10.93;10.03;;;7.60;99.90;;;;;;4995621;28;20186;-81
2021/11/02 01:35:20;;;;;;;11.40;10.13;;;7.60;99.90;;;;;;4997140;28;20180;-81
2021/11/02 01:37:46;;;;;;;11.73;10.60;;;7.60;99.90;;;;;;4996962;28;20262;-81
2021/11/02 01:40:14;;;;;;;11.60;10.53;;;7.60;99.90;;;;;;4996194;28;20210;-81
2021/11/02 01:42:40;;;;;;;10.10;9.10;;;7.60;99.90;;;;;;4996273;28;20206;-80
2021/11/02 01:45:08;;;;;;;10.73;9.73;;;7.60;99.90;;;;;;4996862;28;20228;-80
2021/11/02 01:47:36;;;;;;;10.60;9.70;;;7.60;99.90;;;;;;4997084;28;20332;-81
2021/11/02 01:50:03;;;;;;;11.20;10.13;;;7.60;99.90;;;;;;4995582;28;20217;-81
2021/11/02 01:52:29;;;;;;;10.87;9.80;;;7.70;99.90;;;;;;4995894;28;20226;-80
2021/11/02 01:54:54;;;;;;;10.10;9.20;;;7.60;99.90;;;;;;4996836;28;20179;-80
2021/11/02 01:57:20;;;;;;;9.13;8.30;;;7.70;99.90;;;;;;4995773;28;20178;-80
2021/11/02 01:59:46;;;;;;;8.70;7.60;;;7.70;99.90;;;;;;4997485;28;20251;-79
2021/11/02 02:02:44;;;;;;;7.60;6.90;;;7.80;99.90;;;;;;4999466;28;20185;-81
2021/11/02 02:05:36;;;;;;;8.80;7.30;;;7.90;99.90;;;;;;4975901;28;20187;-81
2021/11/02 02:08:21;;;;;;;8.03;7.30;;;7.90;99.90;;;;;;4998852;28;20178;-79
2021/11/02 02:11:12;;;;;;;7.43;6.83;;;8.00;99.90;;;;;;4998525;28;20196;-81
2021/11/02 02:13:41;;;;;;;6.93;6.33;;;8.00;99.90;;;;;;4996780;28;20175;-81
2021/11/02 02:16:31;;;;;;;7.53;6.83;;;8.00;99.90;;;;;;4989777;28;20205;-82
2021/11/02 02:19:11;;;;;;;7.27;6.67;;;8.00;99.90;;;;;;4998669;28;20180;-81
2021/11/02 02:21:40;;;;;;;7.27;6.70;;;8.00;99.90;;;;;;4997516;28;20737;-81
2021/11/02 02:24:36;;;;;;;7.13;6.53;;;7.90;99.90;;;;;;4996559;28;20620;-82
2021/11/02 02:27:31;;;;;;;6.97;6.37;;;7.90;99.90;;;;;;4997879;28;20254;-80
2021/11/02 02:30:01;;;;;;;8.27;7.47;;;7.90;99.90;;;;;;4997816;28;20199;-80
2021/11/02 02:32:28;;;;;;;8.23;7.53;;;7.90;99.90;;;;;;4996259;28;20187;-81
2021/11/02 02:34:58;;;;;;;9.13;8.40;;;7.90;99.90;;;;;;4998210;28;20182;-80
2021/11/02 02:37:28;;;;;;;10.70;9.70;;;7.90;99.90;;;;;;4997996;28;20191;-82
2021/11/02 02:39:56;;;;;;;11.10;10.20;;;7.90;99.90;;;;;;4991013;28;20207;-81
2021/11/02 02:42:23;;;;;;;11.50;10.37;;;7.80;99.90;;;;;;4982835;28;20183;-82
2021/11/02 02:44:51;;;;;;;11.30;10.23;;;7.80;99.90;;;;;;4995761;28;20658;-82
2021/11/02 02:47:18;;;;;;;10.83;9.77;;;7.80;99.90;;;;;;4995886;28;20214;-80
2021/11/02 02:49:45;;;;;;;11.00;10.10;;;7.70;99.90;;;;;;4995915;28;20207;-81
2021/11/02 02:52:13;;;;;;;9.70;8.80;;;7.70;99.90;;;;;;4991848;28;20187;-82
2021/11/02 02:54:42;;;;;;;9.07;8.27;;;7.70;99.90;;;;;;4996045;28;20203;-80
2021/11/02 02:57:10;;;;;;;9.47;8.63;;;7.60;99.90;;;;;;4996342;28;20187;-81
2021/11/02 02:59:37;;;;;;;9.70;8.90;;;7.60;99.90;;;;;;4995957;28;20196;-80
2021/11/02 03:02:04;;;;;;;9.30;8.57;;;7.60;99.90;;;;;;4997992;28;20270;-82
2021/11/02 03:04:34;;;;;;;9.60;8.73;;;7.50;99.90;;;;;;4997854;28;20188;-81
2021/11/02 03:07:02;;;;;;;9.50;8.60;;;7.50;99.90;;;;;;4997567;28;20210;-81
2021/11/02 03:09:27;;;;;;;10.23;9.33;;;7.50;99.90;;;;;;4996670;28;20207;-82
2021/11/02 03:11:55;;;;;;;10.17;9.23;;;7.60;99.90;;;;;;4997301;28;20640;-80
2021/11/02 03:14:31;;;;;;;9.67;8.77;;;7.50;99.90;;;;;;4997421;28;20683;-81
2021/11/02 03:17:04;;;;;;;11.00;8.93;;;7.50;99.90;;;;;;4996346;28;20271;-80
2021/11/02 03:54:58;;;;;;;8.40;7.70;;;7.40;99.90;;;;;;5003018;28;20654;-82
2021/11/02 04:25:33;;;;;;;8.07;7.37;;;6.80;99.90;;;;;;5000815;28;20190;-80
2021/11/02 04:28:03;;;;;;;8.53;7.53;;;6.70;99.90;;;;;;5000356;28;20185;-79
2021/11/02 04:47:20;;;;;;;7.97;7.27;;;6.30;99.90;;;;;;4998227;28;20247;-82
2021/11/02 05:56:00;;;;;;;6.60;6.10;;;6.10;99.90;;;;;;4998494;28;20441;-81
2021/11/02 06:01:23;;;;;;;6.83;6.13;;;6.10;99.90;;;;;;4999986;28;20701;-81
2021/11/02 06:09:26;;;;;;;7.40;6.70;;;6.10;99.90;;;;;;4999317;28;20250;-80
2021/11/02 06:29:02;;;;;;;8.37;6.73;;;6.20;99.90;;;;;;4999304;28;20661;-80
2021/11/02 06:31:35;;;;;;;8.10;7.30;;;6.70;99.90;;;;;;5024190;23;20212;-77
2021/11/02 06:34:13;;;;;;;11.23;7.33;;;6.10;99.90;;;;;;5027404;28;20170;-79
2021/11/02 06:37:48;;;;;;;12.90;7.07;;;6.10;99.90;;;;;;5030572;28;20176;-79
2021/11/02 06:39:51;;;;;;;11.37;7.40;;;6.10;99.90;;;;;;5034602;28;20196;-79
2021/11/02 06:48:07;;;;;;;7.70;6.90;;;6.30;99.90;;;;;;5014782;28;20201;-79
2021/11/02 06:59:56;;;;;;;10.60;9.60;;;6.30;99.90;;;;;;5016454;28;20251;-80
2021/11/02 07:15:50;;;;;;;11.00;9.90;;;6.60;99.90;;;;;;5016692;28;20291;-79
2021/11/02 07:20:56;;;;;;;11.70;10.57;;;6.90;99.90;;;;;;5017865;28;20280;-78
2021/11/02 08:46:59;;;;;;;6.03;4.03;;;7.60;99.90;;;;;;5015209;28;20200;-78
2021/11/02 08:49:25;;;;;;;3.73;2.93;;;7.60;99.90;;;;;;5015270;28;20181;-78
2021/11/02 08:51:56;;;;;;;5.00;3.60;;;7.90;99.90;;;;;;5015327;28;20657;-78
2021/11/02 08:54:23;;;;;;;5.53;3.40;;;8.00;99.90;;;;;;5015326;28;20189;-78
2021/11/02 08:56:50;;;;;;;4.30;3.43;;;7.80;99.90;;;;;;5015338;28;20282;-78
2021/11/02 08:59:16;;;;;;;6.00;3.33;;;7.90;99.90;;;;;;5012699;28;20183;-77
2021/11/02 09:01:42;;;;;;;3.33;2.57;;;7.90;99.90;;;;;;5014933;28;20205;-78
2021/11/02 09:04:09;;;;;;;2.77;2.40;;;8.00;99.90;;;;;;5013649;28;20179;-79
2021/11/02 09:06:38;;;;;;;4.47;2.40;;;8.00;99.90;;;;;;5015319;28;20587;-78
2021/11/02 09:09:06;;;;;;;2.00;1.73;;;8.40;99.90;;;;;;5014926;28;20233;-79
2021/11/02 09:11:38;;;;;;;1.50;1.20;;;8.00;99.90;;;;;;5013965;28;20194;-78
2021/11/02 09:14:05;;;;;;;1.13;1.03;;;8.10;99.90;;;;;;5032711;28;20610;-79
2021/11/02 09:16:34;;;;;;;1.63;1.40;;;8.20;99.90;;;;;;5017226;28;20185;-77
2021/11/02 09:19:02;;;;;;;2.20;2.00;;;8.20;99.90;;;;;;5016853;28;20189;-80
2021/11/02 09:21:28;;;;;;;1.77;1.67;;;8.20;99.90;;;;;;5014800;28;20178;-79
2021/11/02 09:23:54;;;;;;;1.53;1.07;;;8.30;99.90;;;;;;5013820;28;20190;-78
2021/11/02 09:26:25;;;;;;;1.40;1.10;;;8.30;99.90;;;;;;5015947;28;20214;-78
2021/11/02 09:28:51;;;;;;;2.13;1.07;;;8.60;99.90;;;;;;5004804;28;20236;-78
2021/11/02 09:31:24;;;;;;;2.20;1.30;;;8.70;99.90;;;;;;5014555;28;20186;-78
2021/11/02 09:33:50;;;;;;;1.37;1.27;;;8.60;99.90;;;;;;5014996;28;20205;-78
2021/11/02 09:36:22;;;;;;;2.80;1.20;;;8.30;99.90;;;;;;5014873;28;20187;-79
2021/11/02 09:39:01;;;;;;;2.30;1.20;;;8.30;99.90;;;;;;5014945;28;20179;-78
2021/11/02 09:42:31;;;;;;;1.30;1.20;;;8.40;99.90;;;;;;5014277;28;20206;-79
2021/11/02 09:45:34;;;;;;;1.60;1.50;;;8.50;99.90;;;;;;4993917;28;20278;-79
2021/11/02 09:48:30;;;;;;;1.87;1.37;;;8.40;99.90;;;;;;4994598;28;20188;-78
2021/11/02 09:51:26;;;;;;;1.93;1.70;;;8.40;99.90;;;;;;5014754;28;20183;-79
2021/11/02 09:54:24;;;;;;;3.60;1.60;;;8.40;99.90;;;;;;5016093;28;20244;-78
2021/11/02 09:57:40;;;;;;;1.23;1.10;;;8.50;99.90;;;;;;5014842;28;20199;-78
2021/11/02 10:00:08;;;;;;;1.80;1.47;;;8.50;99.90;;;;;;5014723;28;20191;-79
2021/11/02 10:03:18;;;;;;;1.90;1.60;;;8.50;99.90;;;;;;5014482;28;20612;-79
2021/11/02 10:06:09;;;;;;;3.27;1.50;;;8.50;99.90;;;;;;5015634;28;20229;-78
2021/11/02 10:08:45;;;;;;;2.03;1.70;;;8.50;99.90;;;;;;5014829;28;20542;-78
2021/11/02 10:11:22;;;;;;;3.67;1.60;;;8.50;99.90;;;;;;5015684;28;20177;-78
2021/11/02 10:14:13;;;;;;;1.87;1.73;;;8.60;99.90;;;;;;5015554;28;20664;-79
2021/11/02 10:16:54;;;;;;;2.73;1.50;;;8.60;99.90;;;;;;5014571;28;20182;-78
2021/11/02 10:19:55;;;;;;;1.50;1.30;;;8.60;99.90;;;;;;5014856;28;20598;-79
2021/11/02 10:22:26;;;;;;;1.97;1.60;;;8.70;99.90;;;;;;5014553;28;20289;-79
2021/11/02 10:25:12;;;;;;;1.80;1.40;;;8.80;99.90;;;;;;5015058;28;20234;-79
2021/11/02 10:28:15;;;;;;;1.43;1.20;;;9.00;99.90;;;;;;5015582;28;20682;-79
2021/11/02 10:30:54;;;;;;;0.90;0.90;;;9.00;99.90;;;;;;5015570;28;20176;-79
2021/11/02 10:33:47;;;;;;;1.27;0.80;;;9.00;99.90;;;;;;5014302;28;20224;-79
2021/11/02 10:36:24;;;;;;;1.87;0.80;;;9.00;99.90;;;;;;5014644;28;20584;-78
2021/11/02 10:39:12;;;;;;;1.33;1.20;;;9.00;99.90;;;;;;5018804;28;20614;-78
2021/11/02 10:41:54;;;;;;;1.27;1.17;;;9.10;99.90;;;;;;5017532;28;20226;-79
2021/11/02 10:44:24;;;;;;;1.13;0.97;;;9.00;99.90;;;;;;5017900;28;20189;-78
2021/11/02 10:47:08;;;;;;;1.83;0.90;;;9.40;99.90;;;;;;5019000;28;20206;-78
2021/11/02 10:49:57;;;;;;;2.03;1.10;;;9.10;99.90;;;;;;5018741;28;20206;-79
2021/11/02 10:52:27;;;;;;;1.23;1.03;;;9.00;99.90;;;;;;5018666;28;20234;-79
2021/11/02 10:55:18;;;;;;;2.20;1.30;;;9.20;99.90;;;;;;5017899;28;20187;-78
2021/11/02 10:58:00;;;;;;;1.80;1.37;;;9.10;99.90;;;;;;5017469;28;20182;-78
2021/11/02 11:00:27;;;;;;;3.07;1.67;;;9.10;99.90;;;;;;5018721;28;20178;-78
2021/11/02 11:02:55;;;;;;;2.33;1.23;;;9.10;99.90;;;;;;5018259;28;20261;-78
2021/11/02 11:05:27;;;;;;;1.53;1.20;;;9.10;99.90;;;;;;5016868;28;20179;-77
2021/11/02 11:07:54;;;;;;;3.10;2.17;;;9.10;99.90;;;;;;5018076;28;20224;-78
2021/11/02 11:10:23;;;;;;;3.27;2.23;;;9.10;99.90;;;;;;5018558;28;20668;-78
2021/11/02 11:12:55;;;;;;;1.40;1.10;;;9.10;99.90;;;;;;5016841;28;20727;-78
2021/11/02 11:15:22;;;;;;;1.90;1.50;;;9.20;99.90;;;;;;5017316;28;20580;-77
2021/11/02 11:18:04;;;;;;;1.20;0.70;;;9.40;99.90;;;;;;5018213;28;20532;-78
2021/11/02 11:20:33;;;;;;;2.07;1.60;;;9.40;99.90;;;;;;5018272;28;20192;-78
2021/11/02 11:23:05;;;;;;;1.00;0.90;;;9.50;99.90;;;;;;5017751;28;20219;-78
2021/11/02 11:25:51;;;;;;;0.77;0.50;;;9.60;99.90;;;;;;5018019;28;20171;-78
2021/11/02 11:28:19;;;;;;;1.37;0.90;;;9.70;99.90;;;;;;5021317;28;20723;-79
2021/11/02 11:30:45;;;;;;;0.60;0.60;;;9.70;99.90;;;;;;5020105;28;20179;-80
2021/11/02 11:33:18;;;;;;;0.87;0.60;;;9.80;99.90;;;;;;5019863;28;20223;-79
2021/11/02 11:35:44;;;;;;;1.13;0.70;;;9.70;99.90;;;;;;5018261;28;20309;-78
2021/11/02 11:38:15;;;;;;;1.33;1.00;;;9.70;99.90;;;;;;5018899;28;20182;-78
2021/11/02 11:40:43;;;;;;;1.87;1.20;;;9.70;99.90;;;;;;5017414;28;20183;-78
2021/11/02 11:43:11;;;;;;;1.00;0.70;;;9.70;99.90;;;;;;5017274;28;20199;-79
2021/11/02 11:45:44;;;;;;;0.80;0.53;;;9.80;99.90;;;;;;5017514;28;20179;-78
2021/11/02 11:48:14;;;;;;;0.70;0.40;;;9.80;99.90;;;;;;5017130;28;20632;-79
2021/11/02 11:50:43;;;;;;;1.27;0.50;;;10.00;99.90;;;;;;5019021;28;20250;-79
2021/11/02 11:53:09;;;;;;;1.30;0.60;;;;;;;;;;5018371;28;20199;-78
2021/11/02 11:55:36;;;;;;;0.80;0.50;;;10.10;99.90;;;;;;5016601;28;20175;-78
2021/11/02 11:58:14;;;;;;;1.00;0.50;;;10.20;99.90;;;;;;5017034;28;20183;-80
2021/11/02 12:00:46;;;;;;;0.57;0.40;;;10.20;99.90;;;;;;5018709;28;20203;-78
2021/11/02 12:03:25;;;;;;;2.00;0.37;;;10.20;99.90;;;;;;5016530;28;20199;-79
2021/11/02 12:06:21;;;;;;;0.30;0.30;;;10.10;99.90;;;;;;5018609;28;20225;-78
2021/11/02 12:09:17;;;;;;;0.60;0.50;;;10.20;99.90;;;;;;5017967;28;20625;-78
2021/11/02 12:11:44;;;;;;;4.63;0.50;;;10.10;99.90;;;;;;5012583;28;20243;-79
2021/11/02 12:14:12;;;;;;;0.50;0.43;;;10.20;99.90;;;;;;5018411;28;20198;-79
2021/11/02 12:16:43;;;;;;;0.47;0.47;;;10.20;99.90;;;;;;5018090;28;20211;-78
2021/11/02 12:19:14;;;;;;;0.93;0.70;;;10.20;99.90;;;;;;5018129;28;20179;-79
2021/11/02 12:21:42;;;;;;;1.03;0.83;;;10.30;99.90;;;;;;5018238;28;20206;-79
2021/11/02 12:24:11;;;;;;;1.57;0.70;;;10.30;99.90;;;;;;5016464;28;20567;-79
2021/11/02 12:26:48;;;;;;;0.40;0.40;;;10.30;99.90;;;;;;5018775;28;20199;-78
2021/11/02 12:29:23;;;;;;;0.70;0.60;;;10.30;99.90;;;;;;5018287;28;20175;-80
2021/11/02 12:32:00;;;;;;;0.93;0.60;;;10.30;99.90;;;;;;5018403;28;20206;-79
2021/11/02 12:34:29;;;;;;;0.60;0.40;;;10.20;99.90;;;;;;5018107;28;20183;-79
2021/11/02 12:36:58;;;;;;;0.57;0.57;;;10.10;99.90;;;;;;5017227;28;20283;-79
2021/11/02 12:39:28;;;;;;;0.80;0.50;;;10.20;99.90;;;;;;5015929;28;20594;-79
2021/11/02 12:41:59;;;;;;;2.87;1.27;;;10.10;99.90;;;;;;5017185;28;20219;-79
2021/11/02 12:44:30;;;;;;;4.00;2.03;;;10.10;99.90;;;;;;5018063;28;20289;-80
2021/11/02 12:46:57;;;;;;;3.20;2.03;;;10.20;99.90;;;;;;5016709;28;20218;-79
2021/11/02 12:49:49;;;;;;;4.47;2.90;;;10.20;99.90;;;;;;5017213;28;20183;-80
2021/11/02 12:52:19;;;;;;;2.70;1.10;;;10.10;99.90;;;;;;5014470;28;20681;-79
2021/11/02 12:55:27;;;;;;;1.30;0.90;;;10.10;99.90;;;;;;5017270;28;20193;-79
2021/11/02 12:58:12;;;;;;;2.27;1.37;;;10.10;99.90;;;;;;5016056;28;20194;-79
2021/11/02 13:00:46;;;;;;;1.60;0.60;;;10.10;99.90;;;;;;5017101;28;20605;-79
2021/11/02 13:03:26;;;;;;;2.57;0.67;;;10.10;99.90;;;;;;5016443;28;20257;-78
2021/11/02 13:06:02;;;;;;;1.47;0.77;;;10.00;99.90;;;;;;5016950;28;20201;-78
2021/11/02 13:08:30;;;;;;;1.20;1.00;;;10.00;99.90;;;;;;5016566;28;20179;-78
2021/11/02 13:11:07;;;;;;;1.63;0.80;;;10.00;99.90;;;;;;5016824;28;20174;-78
2021/11/02 13:13:40;;;;;;;1.07;0.60;;;10.10;99.90;;;;;;5016434;28;20212;-79
2021/11/02 13:16:07;;;;;;;2.03;0.60;;;9.90;99.90;;;;;;5016434;28;20179;-79
2021/11/02 13:18:39;;;;;;;1.90;0.73;;;9.90;99.90;;;;;;5016969;28;20202;-79
2021/11/02 13:21:19;;;;;;;0.77;0.67;;;9.90;99.90;;;;;;5016379;28;20186;-78
2021/11/02 13:23:52;;;;;;;0.70;0.70;;;9.90;99.90;;;;;;5016043;28;20191;-78
2021/11/02 13:26:22;;;;;;;1.67;0.60;;;9.80;99.90;;;;;;5016028;28;20676;-78
2021/11/02 13:28:49;;;;;;;2.60;0.90;;;9.70;99.90;;;;;;5017013;28;20238;-78
2021/11/02 13:31:37;;;;;;;1.70;0.97;;;9.80;99.90;;;;;;5016806;28;20693;-78
2021/11/02 13:34:15;;;;;;;1.10;0.90;;;9.70;99.90;;;;;;5016481;28;20187;-79
2021/11/02 13:36:42;;;;;;;5.13;0.93;;;9.70;99.90;;;;;;5018818;28;20229;-78
2021/11/02 13:39:15;;;;;;;1.00;0.90;;;9.70;99.90;;;;;;5015111;28;20206;-78
2021/11/02 13:41:50;;;;;;;1.53;0.67;;;9.80;99.90;;;;;;5016576;28;20225;-78
2021/11/02 13:44:17;;;;;;;1.03;0.80;;;9.80;99.90;;;;;;5016055;28;20183;-78
2021/11/02 13:46:46;;;;;;;0.87;0.70;;;9.70;99.90;;;;;;5014418;28;20206;-78
2021/11/02 13:49:14;;;;;;;1.17;0.50;;;9.80;99.90;;;;;;5020010;28;20185;-79
2021/11/02 13:51:41;;;;;;;1.23;0.53;;;9.80;99.90;;;;;;5020568;28;20201;-78
2021/11/02 13:54:07;;;;;;;0.67;0.40;;;9.80;99.90;;;;;;5019984;28;20634;-78
2021/11/02 13:56:42;;;;;;;0.70;0.60;;;9.80;99.90;;;;;;5020630;28;20191;-79
2021/11/02 13:59:09;;;;;;;1.57;0.90;;;9.80;99.90;;;;;;5018554;28;20271;-78
2021/11/02 14:01:56;;;;;;;0.57;0.37;;;9.80;99.90;;;;;;5017698;28;20605;-79
2021/11/02 14:04:21;;;;;;;0.40;0.40;;;9.80;99.90;;;;;;5017542;28;20180;-78
2021/11/02 14:06:56;;;;;;;6.60;0.50;;;9.90;99.90;;;;;;5017786;28;20366;-79
2021/11/02 14:09:31;;;;;;;0.87;0.60;;;9.80;99.90;;;;;;5017513;28;20178;-79
2021/11/02 14:12:18;;;;;;;0.57;0.40;;;9.90;99.90;;;;;;5016212;28;20209;-79
2021/11/02 14:14:44;;;;;;;2.10;0.80;;;9.90;99.90;;;;;;5016969;28;20254;-80
2021/11/02 14:17:18;;;;;;;0.40;0.40;;;10.00;99.90;;;;;;5017145;28;20217;-79
2021/11/02 14:19:45;;;;;;;1.10;0.50;;;10.00;99.90;;;;;;5014912;28;20186;-79
2021/11/02 14:22:13;;;;;;;0.60;0.40;;;10.00;99.90;;;;;;5016481;28;20549;-79
2021/11/02 14:24:39;;;;;;;1.47;1.00;;;9.90;99.90;;;;;;5016902;28;20634;-79
2021/11/02 14:27:11;;;;;;;1.23;0.60;;;9.90;99.90;;;;;;5016484;28;20205;-80
2021/11/02 14:29:57;;;;;;;1.23;0.63;;;9.90;99.90;;;;;;5015476;28;20183;-79
2021/11/02 14:32:38;;;;;;;0.70;0.50;;;9.90;99.90;;;;;;5014885;28;20256;-79
2021/11/02 14:35:09;;;;;;;0.43;0.40;;;10.00;99.90;;;;;;5013739;28;20174;-78
2021/11/02 14:37:52;;;;;;;0.50;0.50;;;9.90;99.90;;;;;;5015364;28;20211;-79
2021/11/02 14:40:35;;;;;;;1.10;0.57;;;9.80;99.90;;;;;;5016192;28;20327;-79
2021/11/02 14:43:13;;;;;;;0.30;0.30;;;9.80;99.90;;;;;;5014837;28;20646;-78
2021/11/02 14:45:42;;;;;;;0.53;0.43;;;9.70;99.90;;;;;;5007305;28;20726;-79
2021/11/02 14:48:26;;;;;;;1.00;0.40;;;9.60;99.90;;;;;;5011596;28;20179;-79
2021/11/02 14:50:57;;;;;;;1.00;0.30;;;9.70;99.90;;;;;;5014426;28;20223;-77
2021/11/02 14:53:28;;;;;;;0.43;0.40;;;9.70;99.90;;;;;;5015853;28;20548;-79
2021/11/02 14:55:55;;;;;;;0.63;0.50;;;9.60;99.90;;;;;;5014980;28;20206;-78
2021/11/02 14:58:39;;;;;;;2.50;0.20;;;9.60;99.90;;;;;;5014062;28;20187;-78
2021/11/02 15:01:12;;;;;;;0.40;0.40;;;9.50;99.90;;;;;;5014149;28;20187;-78
2021/11/02 15:03:40;;;;;;;0.70;0.40;;;9.40;99.90;;;;;;5012458;28;20183;-78
2021/11/02 15:06:13;;;;;;;1.00;0.30;;;9.40;99.90;;;;;;5014049;28;20209;-79
2021/11/02 15:08:42;;;;;;;0.60;0.43;;;9.40;99.90;;;;;;5014258;28;20282;-78
2021/11/02 15:11:14;;;;;;;1.27;0.40;;;9.40;99.90;;;;;;5013049;28;20524;-78
2021/11/02 15:13:45;;;;;;;1.30;0.30;;;9.40;99.90;;;;;;5013842;28;20183;-79
2021/11/02 15:16:10;;;;;;;0.70;0.30;;;9.40;99.90;;;;;;5013990;28;20655;-78
2021/11/02 15:18:51;;;;;;;0.27;0.27;;;9.40;99.90;;;;;;5013911;28;20182;-78
2021/11/02 15:21:44;;;;;;;1.27;0.20;;;9.30;99.90;;;;;;5016683;28;20183;-78
2021/11/02 15:24:31;;;;;;;0.97;0.40;;;9.30;99.90;;;;;;5016637;28;20267;-79
2021/11/02 15:27:08;;;;;;;0.93;0.30;;;9.40;99.90;;;;;;5017573;28;20202;-78
2021/11/02 15:29:37;;;;;;;0.60;0.10;;;9.20;99.90;;;;;;5016163;28;20179;-78
2021/11/02 15:32:06;;;;;;;0.20;0.20;;;9.20;99.90;;;;;;5017400;28;20222;-79
2021/11/02 15:34:52;;;;;;;0.37;0.37;;;9.20;99.90;;;;;;5017568;28;20699;-78
2021/11/02 15:37:29;;;;;;;0.70;0.50;;;9.20;99.90;;;;;;5017482;28;20266;-79
2021/11/02 15:39:55;;;;;;;2.07;0.70;;;9.10;99.90;;;;;;5017319;28;20179;-78
2021/11/02 15:42:28;;;;;;;0.50;0.50;;;9.00;99.90;;;;;;5017779;28;20209;-78
2021/11/02 15:44:56;;;;;;;2.27;0.60;;;9.00;99.90;;;;;;5021130;28;20182;-78
2021/11/02 15:47:26;;;;;;;0.93;0.50;;;9.00;99.90;;;;;;5027174;28;20292;-78
2021/11/02 15:50:14;;;;;;;1.77;0.93;;;9.00;99.90;;;;;;5016873;28;20177;-79
2021/11/02 15:52:39;;;;;;;3.07;1.00;;;9.00;99.90;;;;;;5017088;28;20202;-78
2021/11/02 15:55:16;;;;;;;1.77;0.70;;;9.10;99.90;;;;;;5015573;28;20191;-79
2021/11/02 15:57:54;;;;;;;0.80;0.80;;;9.20;99.90;;;;;;5017193;28;20208;-78
2021/11/02 16:00:25;;;;;;;1.00;0.60;;;9.20;99.90;;;;;;5017173;28;20196;-78
2021/11/02 16:02:51;;;;;;;0.50;0.43;;;9.10;99.90;;;;;;5015111;28;20731;-78
2021/11/02 16:05:25;;;;;;;1.03;0.50;;;9.10;99.90;;;;;;5015499;28;20187;-78
2021/11/02 16:07:53;;;;;;;0.60;0.40;;;9.10;99.90;;;;;;5016708;28;20198;-78
2021/11/02 16:10:25;;;;;;;0.93;0.50;;;9.00;99.90;;;;;;5017105;28;20199;-79
2021/11/02 16:12:51;;;;;;;0.47;0.47;;;9.00;99.90;;;;;;5017255;28;20195;-79
2021/11/02 16:15:20;;;;;;;0.77;0.67;;;9.00;99.90;;;;;;5019842;28;20635;-78
2021/11/02 16:17:49;;;;;;;0.80;0.80;;;9.10;99.90;;;;;;5019302;28;20178;-77
2021/11/02 16:20:39;;;;;;;1.60;1.00;;;9.10;99.90;;;;;;5018281;28;20528;-80
2021/11/02 16:23:17;;;;;;;0.70;0.50;;;9.00;99.90;;;;;;5017517;28;20207;-79
2021/11/02 16:25:49;;;;;;;2.03;0.87;;;9.10;99.90;;;;;;5018939;28;20193;-78
2021/11/02 16:28:16;;;;;;;1.60;1.00;;;9.00;99.90;;;;;;5019113;28;20178;-79
2021/11/02 16:30:46;;;;;;;2.73;1.53;;;9.10;99.90;;;;;;5018634;28;20201;-79
2021/11/02 16:33:12;;;;;;;1.00;0.90;;;9.00;99.90;;;;;;5017225;28;20290;-79
2021/11/02 16:35:51;;;;;;;1.00;0.90;;;8.90;99.90;;;;;;5018332;28;20179;-78
2021/11/02 16:38:37;;;;;;;1.37;1.00;;;8.90;99.90;;;;;;5018486;28;20174;-80
2021/11/02 16:41:16;;;;;;;2.90;1.23;;;8.90;99.90;;;;;;5017921;28;20235;-79
2021/11/02 16:43:55;;;;;;;1.60;1.50;;;8.90;99.90;;;;;;5016549;28;20276;-79
2021/11/02 16:46:28;;;;;;;2.33;1.90;;;8.80;99.90;;;;;;5017043;28;20203;-79
2021/11/02 16:49:05;;;;;;;5.00;2.00;;;8.70;99.90;;;;;;5018166;28;20214;-79
2021/11/02 16:52:06;;;;;;;2.77;2.30;;;8.70;99.90;;;;;;5015774;28;20203;-78
2021/11/02 16:54:37;;;;;;;3.00;2.30;;;8.60;99.90;;;;;;5016091;28;20194;-79
2021/11/02 16:57:21;;;;;;;2.30;2.03;;;8.60;99.90;;;;;;5017614;28;20179;-79
2021/11/02 16:59:48;;;;;;;6.10;4.83;;;8.50;99.90;;;;;;5019062;28;20183;-80
2021/11/02 17:02:35;;;;;;;2.30;1.90;;;8.50;99.90;;;;;;5015788;28;20779;-79
2021/11/02 17:05:36;;;;;;;2.07;1.43;;;8.40;99.90;;;;;;5017332;28;20277;-79
2021/11/02 17:08:01;;;;;;;29.87;15.47;;;8.30;99.90;;;;;;5014089;28;20215;-79
2021/11/02 17:10:32;;;;;;;31.73;16.87;;;8.30;99.90;;;;;;5017553;28;20171;-79
2021/11/02 17:13:05;;;;;;;28.50;16.17;;;8.30;99.90;;;;;;5017214;28;20202;-79
2021/11/02 17:15:44;;;;;;;20.83;12.53;;;8.30;99.90;;;;;;5016021;28;20178;-80
2021/11/02 17:18:13;;;;;;;5.10;4.60;;;8.30;99.90;;;;;;5015674;28;20206;-79
2021/11/02 17:20:38;;;;;;;4.13;3.30;;;8.30;99.90;;;;;;5015911;28;20266;-79
2021/11/02 17:23:05;;;;;;;3.70;3.20;;;8.30;99.90;;;;;;5016994;28;20253;-78
2021/11/02 17:25:31;;;;;;;4.17;3.60;;;8.20;99.90;;;;;;5016761;28;20528;-79
2021/11/02 17:28:13;;;;;;;3.73;3.37;;;8.20;99.90;;;;;;4944993;27;4736754;-78
2021/11/02 17:30:39;;;;;;;1.90;1.30;;;8.20;99.90;;;;;;5053805;28;20181;-77
2021/11/02 17:33:06;;;;;;;2.37;1.90;;;8.10;99.90;;;;;;5061065;28;20654;-78
2021/11/02 17:35:32;;;;;;;2.87;1.50;;;7.90;99.90;;;;;;5071251;28;20181;-78
2021/11/02 17:38:00;;;;;;;3.40;2.67;;;7.80;99.90;;;;;;5071568;28;20217;-78
2021/11/02 17:40:30;;;;;;;1.57;1.30;;;8.10;99.90;;;;;;5071462;28;20629;-78
2021/11/02 17:43:01;;;;;;;4.47;2.90;;;7.80;99.90;;;;;;5071018;28;20207;-78
2021/11/02 17:45:38;;;;;;;2.63;2.43;;;7.70;99.90;;;;;;5053425;28;20240;-78
2021/11/02 17:48:05;;;;;;;4.07;2.87;;;7.70;99.90;;;;;;5069027;28;20199;-79
2021/11/02 17:50:39;;;;;;;3.63;2.00;;;7.70;99.90;;;;;;5068314;28;20270;-78
2021/11/02 17:53:15;;;;;;;1.90;1.57;;;7.60;99.90;;;;;;5051543;28;20191;-78
2021/11/02 17:55:46;;;;;;;3.20;2.70;;;7.50;99.90;;;;;;5070239;28;20174;-78
2021/11/02 17:58:22;;;;;;;4.00;2.17;;;7.40;99.90;;;;;;5070913;28;20543;-78
2021/11/02 18:00:57;;;;;;;2.80;2.10;;;7.40;99.90;;;;;;5071162;28;20256;-79
2021/11/02 18:03:28;;;;;;;1.90;1.60;;;7.40;99.90;;;;;;5071041;28;20207;-79
2021/11/02 18:06:07;;;;;;;3.13;2.10;;;7.30;99.90;;;;;;5070778;28;20174;-78
2021/11/02 18:08:45;;;;;;;2.10;1.60;;;7.20;99.90;;;;;;5071280;28;20180;-78
2021/11/02 18:11:13;;;;;;;2.23;1.80;;;7.30;99.90;;;;;;5072092;28;20565;-78
2021/11/02 18:13:47;;;;;;;3.30;1.73;;;7.00;99.90;;;;;;5072462;28;20173;-78
2021/11/02 18:16:17;;;;;;;2.33;2.13;;;6.90;99.90;;;;;;5070630;28;20199;-79